createdAt,value
2023-03-29T00:03:14.829Z,-3.06
2023-03-29T00:08:18.574Z,-3.13
2023-03-29T00:13:23.834Z,-3.18
2023-03-29T00:18:26.582Z,-3.24
2023-03-29T00:23:29.398Z,-3.28
2023-03-29T00:28:32.203Z,-3.31
2023-03-29T00:33:35.825Z,-3.34
2023-03-29T00:38:40.048Z,-3.37
2023-03-29T00:44:00.393Z,-3.37
2023-03-29T00:49:13.978Z,-3.39
2023-03-29T00:54:18.815Z,-3.41
2023-03-29T00:59:32.858Z,-3.45
2023-03-29T01:05:05.667Z,-3.49
2023-03-29T01:10:22.082Z,-3.52
2023-03-29T01:15:28.174Z,-3.54
2023-03-29T01:21:15.350Z,-3.54
2023-03-29T01:26:27.181Z,0.27
2023-03-29T01:31:41.686Z,4.72
2023-03-29T01:36:58.895Z,3.90
2023-03-29T01:42:29.875Z,1.29
2023-03-29T01:48:12.459Z,-0.15
2023-03-29T01:53:33.398Z,-1.11
2023-03-29T01:58:44.821Z,-1.75
2023-03-29T02:03:54.691Z,-2.23
2023-03-29T02:08:57.955Z,-2.61
2023-03-29T02:14:01.319Z,-2.90
2023-03-29T02:19:05.427Z,-3.13
2023-03-29T02:24:13.467Z,-3.31
2023-03-29T02:29:17.226Z,-3.45
2023-03-29T02:34:37.702Z,-3.54
2023-03-29T02:39:41.177Z,-3.62
2023-03-29T02:44:47.416Z,-3.66
2023-03-29T02:49:50.985Z,-3.17
2023-03-29T02:54:55.885Z,2.22
2023-03-29T03:00:00.057Z,4.08
2023-03-29T03:05:04.023Z,1.42
2023-03-29T03:10:10.157Z,-0.27
2023-03-29T03:15:13.580Z,-1.21
2023-03-29T03:20:16.588Z,-1.89
2023-03-29T03:25:21.276Z,-1.95
2023-03-29T03:30:24.121Z,3.00
2023-03-29T03:35:26.952Z,3.69
2023-03-29T03:40:29.888Z,1.07
2023-03-29T03:45:32.903Z,-0.38
2023-03-29T03:50:35.756Z,-1.30
2023-03-29T03:55:39.672Z,-1.95
2023-03-29T04:00:42.756Z,-2.46
2023-03-29T04:05:47.476Z,-2.84
2023-03-29T04:10:55.715Z,-3.01
2023-03-29T04:16:00.223Z,1.35
2023-03-29T04:21:06.673Z,4.84
2023-03-29T04:26:09.746Z,5.04
2023-03-29T04:31:17.176Z,2.48
2023-03-29T04:36:20.628Z,1.05
2023-03-29T04:41:23.810Z,0.91
2023-03-29T04:46:26.905Z,1.41
2023-03-29T04:51:29.937Z,2.05
2023-03-29T04:56:32.924Z,3.04
2023-03-29T05:01:36.145Z,4.20
2023-03-29T05:06:39.054Z,5.30
2023-03-29T05:11:41.820Z,6.31
2023-03-29T05:16:44.625Z,7.29
2023-03-29T05:21:50.178Z,8.05
2023-03-29T05:26:53.007Z,9.01
2023-03-29T05:31:55.822Z,10.10
2023-03-29T05:36:59.256Z,11.09
2023-03-29T05:42:01.967Z,12.05
2023-03-29T05:47:04.964Z,12.84
2023-03-29T05:52:07.740Z,13.53
2023-03-29T05:57:10.630Z,14.13
2023-03-29T06:02:16.055Z,14.67
2023-03-29T06:07:19.102Z,15.30
2023-03-29T06:12:21.882Z,15.80
2023-03-29T06:17:24.870Z,16.31
2023-03-29T06:22:28.323Z,16.85
2023-03-29T06:27:31.968Z,17.15
2023-03-29T06:32:35.865Z,17.32
2023-03-29T06:37:41.205Z,17.61
2023-03-29T06:42:45.188Z,17.99
2023-03-29T06:47:48.050Z,18.29
2023-03-29T06:52:53.058Z,18.43
2023-03-29T06:58:02.732Z,18.67
2023-03-29T07:03:13.241Z,18.92
2023-03-29T07:08:31.427Z,19.39
2023-03-29T07:13:34.945Z,19.60
2023-03-29T07:18:43.064Z,19.65
2023-03-29T07:23:46.173Z,19.87
2023-03-29T07:29:28.860Z,20.05
2023-03-29T07:34:32.750Z,20.28
2023-03-29T07:39:40.358Z,20.52
2023-03-29T07:44:44.720Z,20.77
2023-03-29T07:49:48.208Z,20.92
2023-03-29T07:54:51.096Z,20.97
2023-03-29T07:59:54.452Z,20.75
2023-03-29T08:04:57.343Z,20.21
2023-03-29T08:10:00.154Z,20.15
2023-03-29T08:15:05.666Z,20.27
2023-03-29T08:20:12.746Z,20.35
2023-03-29T08:25:17.823Z,20.17
2023-03-29T08:30:21.372Z,19.95
2023-03-29T08:35:24.356Z,20.09
2023-03-29T08:40:30.271Z,20.35
2023-03-29T08:46:35.134Z,20.36
2023-03-29T08:51:49.333Z,20.47
2023-03-29T08:56:54.400Z,20.50
2023-03-29T09:02:00.504Z,20.32
2023-03-29T09:07:09.809Z,20.65
2023-03-29T09:12:35.841Z,20.84
2023-03-29T09:17:55.699Z,20.78
2023-03-29T09:23:42.626Z,20.52
2023-03-29T09:29:33.688Z,20.33
2023-03-29T09:35:05.228Z,20.01
2023-03-29T09:40:25.383Z,19.81
2023-03-29T09:45:28.424Z,19.77
2023-03-29T09:50:39.196Z,19.92
2023-03-29T09:55:44.843Z,20.03
2023-03-29T10:00:49.107Z,19.81
2023-03-29T10:05:55.861Z,19.50
2023-03-29T10:11:03.914Z,19.65
2023-03-29T10:16:17.227Z,19.84
2023-03-29T10:21:22.242Z,20.02
2023-03-29T10:26:32.850Z,20.12
2023-03-29T10:31:41.660Z,19.93
2023-03-29T10:36:57.541Z,18.93
2023-03-29T10:42:04.186Z,16.35
2023-03-29T10:47:20.347Z,13.95
2023-03-29T10:52:26.519Z,12.14
2023-03-29T10:57:58.989Z,11.08
2023-03-29T11:03:04.646Z,10.29
2023-03-29T11:08:29.675Z,9.75
2023-03-29T11:13:59.998Z,9.35
2023-03-29T11:19:38.622Z,9.03
2023-03-29T11:25:37.350Z,8.83
2023-03-29T11:31:27.066Z,8.81
2023-03-29T11:37:03.036Z,8.85
2023-03-29T11:42:26.851Z,8.91
2023-03-29T11:47:37.229Z,8.91
2023-03-29T11:52:50.662Z,8.95
2023-03-29T11:58:05.536Z,9.00
2023-03-29T12:03:37.327Z,8.98
2023-03-29T12:08:56.823Z,8.99
2023-03-29T12:14:17.981Z,9.05
2023-03-29T12:19:39.655Z,9.09
2023-03-29T12:24:48.550Z,9.10
2023-03-29T12:30:44.021Z,9.13
2023-03-29T12:36:28.540Z,9.13
2023-03-29T12:41:37.853Z,9.15
2023-03-29T12:46:41.447Z,9.13
2023-03-29T12:51:44.616Z,9.15
2023-03-29T12:56:56.357Z,9.23
2023-03-29T13:02:19.536Z,9.24
2023-03-29T13:07:22.650Z,9.21
2023-03-29T13:12:35.127Z,9.16
2023-03-29T13:18:04.019Z,9.11
2023-03-29T13:23:31.855Z,9.11
2023-03-29T13:28:52.899Z,9.07
2023-03-29T13:34:27.501Z,9.01
2023-03-29T13:39:36.646Z,8.99
2023-03-29T13:44:46.264Z,8.95
2023-03-29T13:50:00.425Z,8.92
2023-03-29T13:55:17.942Z,8.90
2023-03-29T14:00:32.296Z,8.85
2023-03-29T14:05:40.393Z,8.80
2023-03-29T14:10:45.984Z,8.70
2023-03-29T14:15:54.808Z,8.63
2023-03-29T14:21:01.734Z,8.62
2023-03-29T14:26:10.695Z,8.58
2023-03-29T14:31:36.777Z,8.51
2023-03-29T14:36:40.648Z,8.47
2023-03-29T14:41:57.157Z,8.45
2023-03-29T14:47:02.991Z,8.52
2023-03-29T14:52:06.716Z,8.67
2023-03-29T14:57:18.608Z,8.83
2023-03-29T15:02:26.550Z,8.94
2023-03-29T15:07:31.728Z,8.96
2023-03-29T15:12:38.052Z,8.97
2023-03-29T15:17:51.715Z,8.94
2023-03-29T15:23:04.557Z,8.90
2023-03-29T15:28:29.747Z,8.77
2023-03-29T15:33:37.467Z,8.60
2023-03-29T15:38:45.086Z,8.45
2023-03-29T15:43:48.335Z,8.29
2023-03-29T15:48:51.278Z,8.17
2023-03-29T15:53:54.056Z,8.10
2023-03-29T15:58:56.818Z,8.07
2023-03-29T16:04:21.478Z,7.99
2023-03-29T16:09:25.784Z,7.88
2023-03-29T16:14:31.502Z,7.73
2023-03-29T16:19:35.273Z,7.59
2023-03-29T16:24:38.475Z,7.47
2023-03-29T16:29:44.095Z,7.36
2023-03-29T16:34:47.339Z,7.30
2023-03-29T16:39:50.119Z,7.24
2023-03-29T16:44:54.594Z,7.17
2023-03-29T16:49:57.615Z,7.11
2023-03-29T16:55:00.364Z,7.02
2023-03-29T17:00:06.952Z,6.94
2023-03-29T17:05:12.367Z,6.86
2023-03-29T17:10:15.682Z,6.79
2023-03-29T17:15:18.501Z,6.72
2023-03-29T17:20:21.553Z,6.64
2023-03-29T17:25:25.467Z,6.55
2023-03-29T17:30:28.509Z,6.47
2023-03-29T17:35:32.227Z,6.40
2023-03-29T17:40:35.635Z,6.34
2023-03-29T17:45:38.712Z,6.28
2023-03-29T17:50:41.521Z,6.23
2023-03-29T17:55:44.586Z,6.17
2023-03-29T18:00:48.118Z,6.12
2023-03-29T18:05:52.091Z,6.06
2023-03-29T18:10:55.023Z,6.01
2023-03-29T18:15:57.779Z,5.99
2023-03-29T18:21:01.556Z,5.95
2023-03-29T18:26:06.668Z,5.90
2023-03-29T18:31:11.099Z,5.84
2023-03-29T18:36:17.238Z,5.78
2023-03-29T18:41:22.081Z,5.73
2023-03-29T18:46:30.407Z,5.68
2023-03-29T18:51:56.005Z,5.64
2023-03-29T18:57:00.447Z,5.59
2023-03-29T19:02:24.496Z,5.56
2023-03-29T19:07:47.727Z,5.52
2023-03-29T19:13:14.985Z,5.49
2023-03-29T19:18:20.535Z,5.47
2023-03-29T19:23:27.589Z,5.48
2023-03-29T19:28:32.691Z,5.47
2023-03-29T19:33:35.527Z,5.47
2023-03-29T19:38:38.288Z,5.47
2023-03-29T19:44:01.017Z,5.46
2023-03-29T19:49:06.255Z,5.43
2023-03-29T19:54:12.726Z,5.39
2023-03-29T19:59:17.720Z,5.35
2023-03-29T20:04:32.416Z,5.30
2023-03-29T20:09:38.063Z,5.23
2023-03-29T20:14:43.316Z,5.12
2023-03-29T20:20:10.231Z,5.01
2023-03-29T20:25:14.052Z,4.88
2023-03-29T20:30:18.208Z,4.78
2023-03-29T20:35:24.515Z,4.70
2023-03-29T20:40:29.977Z,4.66
2023-03-29T20:45:57.254Z,4.65
2023-03-29T20:51:03.196Z,4.67
2023-03-29T20:56:06.713Z,4.75
2023-03-29T21:01:12.397Z,4.89
2023-03-29T21:06:16.273Z,5.05
2023-03-29T21:11:21.005Z,5.20
2023-03-29T21:16:25.433Z,5.34
2023-03-29T21:21:29.721Z,5.46
2023-03-29T21:26:32.438Z,5.57
2023-03-29T21:31:35.539Z,5.64
2023-03-29T21:36:39.805Z,5.69
2023-03-29T21:41:42.986Z,5.72
2023-03-29T21:46:47.470Z,5.75
2023-03-29T21:51:50.404Z,5.79
2023-03-29T21:56:53.238Z,5.82
2023-03-29T22:01:56.095Z,5.87
2023-03-29T22:06:59.102Z,5.92
2023-03-29T22:12:05.097Z,5.96
2023-03-29T22:17:07.917Z,5.99
2023-03-29T22:22:14.287Z,6.02
2023-03-29T22:27:17.051Z,6.03
2023-03-29T22:32:19.859Z,6.04
2023-03-29T22:37:22.788Z,6.05
2023-03-29T22:42:25.772Z,6.08
2023-03-29T22:47:28.576Z,6.09
2023-03-29T22:52:31.473Z,6.07
2023-03-29T22:57:34.203Z,6.05
2023-03-29T23:02:37.273Z,6.03
2023-03-29T23:07:40.500Z,6.02
2023-03-29T23:12:43.255Z,6.00
2023-03-29T23:17:46.310Z,5.97
2023-03-29T23:22:49.165Z,5.96
2023-03-29T23:27:53.894Z,5.92
2023-03-29T23:32:58.265Z,5.88
2023-03-29T23:38:01.078Z,5.82
2023-03-29T23:43:04.141Z,5.78
2023-03-29T23:48:07.698Z,5.75
2023-03-29T23:53:10.692Z,5.72
2023-03-29T23:58:13.632Z,5.69
